Time;durP1;ratioP1;P1;durP2;ratioP2;P2;SDS_P1;SDS_P2;PMS_P1;PMS_P2;Temp;Humidity;BMP_temperature;BMP_pressure;BME280_temperature;BME280_humidity;BME280_pressure;Samples;Min_cycle;Max_cycle;Signal;HPM_P1;HPM_P2
2021/04/18 00:02:03;;;;;;;5.53;5.07;;;12.90;39.80;;;;;;5073689;28;21294;-51
2021/04/18 00:04:30;;;;;;;6.60;5.03;;;12.90;39.70;;;;;;5074291;28;21177;-51
2021/04/18 00:06:57;;;;;;;5.60;5.10;;;12.90;39.60;;;;;;5073994;28;21266;-51
2021/04/18 00:09:24;;;;;;;6.47;5.83;;;12.90;40.00;;;;;;5073625;28;20621;-52
2021/04/18 00:11:51;;;;;;;13.97;6.33;;;12.90;39.60;;;;;;5073511;28;20697;-52
2021/04/18 00:14:17;;;;;;;5.43;4.80;;;12.90;39.60;;;;;;5073429;28;20680;-52
2021/04/18 00:16:44;;;;;;;5.07;4.57;;;12.80;39.70;;;;;;5074030;28;20681;-52
2021/04/18 00:19:11;;;;;;;11.30;6.07;;;12.80;39.70;;;;;;5073900;28;20636;-52
2021/04/18 00:21:38;;;;;;;8.07;5.43;;;12.80;39.70;;;;;;5073314;28;20656;-52
2021/04/18 00:24:06;;;;;;;5.00;4.53;;;12.70;39.80;;;;;;5069747;28;20621;-53
2021/04/18 00:26:32;;;;;;;6.63;5.70;;;12.70;39.80;;;;;;5068371;28;20657;-53
2021/04/18 00:28:59;;;;;;;9.23;5.93;;;12.70;40.10;;;;;;5070887;28;20674;-54
2021/04/18 00:31:26;;;;;;;5.83;5.23;;;12.70;40.20;;;;;;5072517;28;20686;-53
2021/04/18 00:33:53;;;;;;;11.80;6.00;;;12.70;40.30;;;;;;5081439;28;20653;-53
2021/04/18 00:36:19;;;;;;;10.13;6.33;;;12.70;40.50;;;;;;5079931;28;20704;-54
2021/04/18 00:38:47;;;;;;;7.30;6.03;;;12.70;40.60;;;;;;5087635;28;20637;-54
2021/04/18 00:41:14;;;;;;;8.27;6.00;;;12.70;40.50;;;;;;5073470;28;20653;-53
2021/04/18 00:43:41;;;;;;;5.47;4.97;;;12.70;41.00;;;;;;5073463;28;20629;-53
2021/04/18 00:46:08;;;;;;;6.30;4.80;;;12.60;40.40;;;;;;5073348;28;20797;-53
2021/04/18 00:48:36;;;;;;;6.47;5.37;;;12.60;40.50;;;;;;5072436;28;20648;-53
2021/04/18 00:51:04;;;;;;;6.60;5.40;;;12.60;40.60;;;;;;5072944;28;20692;-53
2021/04/18 00:53:31;;;;;;;10.10;5.60;;;12.60;40.60;;;;;;5072234;28;21158;-53
2021/04/18 00:55:58;;;;;;;6.97;5.30;;;12.50;40.70;;;;;;5073210;28;20657;-53
2021/04/18 00:58:25;;;;;;;5.37;4.90;;;12.50;40.70;;;;;;5072942;28;20633;-54
2021/04/18 01:00:52;;;;;;;6.33;5.50;;;12.50;40.60;;;;;;5072730;28;20662;-53
2021/04/18 01:03:19;;;;;;;7.00;5.47;;;12.50;41.00;;;;;;5072875;28;20706;-53
2021/04/18 01:05:45;;;;;;;8.17;5.60;;;12.40;41.60;;;;;;5072010;28;21211;-53
2021/04/18 01:08:12;;;;;;;6.03;5.43;;;12.30;42.00;;;;;;5079270;28;20628;-53
2021/04/18 01:10:39;;;;;;;8.10;5.93;;;12.30;42.30;;;;;;5079995;28;20642;-53
2021/04/18 01:13:07;;;;;;;9.50;5.97;;;12.20;42.60;;;;;;5072477;28;20621;-53
2021/04/18 01:15:33;;;;;;;6.87;5.10;;;12.10;42.50;;;;;;5071936;28;20660;-53
2021/04/18 01:18:00;;;;;;;7.50;4.80;;;12.10;42.60;;;;;;5072171;28;20682;-53
2021/04/18 01:20:27;;;;;;;4.43;4.03;;;12.00;42.60;;;;;;5052760;28;20723;-53
2021/04/18 01:22:54;;;;;;;8.90;5.63;;;12.00;42.60;;;;;;5069613;28;20630;-54
2021/04/18 01:25:21;;;;;;;9.80;5.23;;;12.00;42.70;;;;;;5072496;28;20622;-53
2021/04/18 01:27:49;;;;;;;8.50;6.10;;;12.00;42.80;;;;;;5072436;28;20655;-53
2021/04/18 01:30:17;;;;;;;7.40;6.00;;;12.00;42.80;;;;;;5072209;28;20636;-53
2021/04/18 01:32:45;;;;;;;9.70;6.50;;;11.90;42.80;;;;;;5072650;28;20632;-53
2021/04/18 01:35:13;;;;;;;7.07;5.97;;;11.80;42.80;;;;;;5071819;28;20698;-53
2021/04/18 01:37:40;;;;;;;5.67;4.80;;;11.80;42.90;;;;;;5072046;28;20621;-53
2021/04/18 01:40:10;;;;;;;5.10;4.43;;;11.80;42.90;;;;;;5075629;28;20656;-53
2021/04/18 01:42:37;;;;;;;6.80;4.37;;;11.80;42.80;;;;;;5091222;28;20624;-53
2021/04/18 01:45:05;;;;;;;6.50;5.00;;;11.70;42.90;;;;;;5080125;28;20616;-53
2021/04/18 01:47:31;;;;;;;7.00;5.00;;;11.70;43.20;;;;;;5091719;28;20624;-53
2021/04/18 01:49:58;;;;;;;5.57;5.07;;;11.70;44.40;;;;;;5092483;28;20620;-53
2021/04/18 01:52:25;;;;;;;8.20;4.73;;;11.70;44.60;;;;;;5077310;28;20661;-53
2021/04/18 01:54:52;;;;;;;5.03;3.97;;;11.70;44.70;;;;;;5071528;28;20658;-53
2021/04/18 01:57:19;;;;;;;6.03;5.63;;;11.60;45.60;;;;;;5071389;28;20641;-53
2021/04/18 01:59:46;;;;;;;5.10;4.67;;;11.60;45.30;;;;;;5070595;28;20625;-53
2021/04/18 02:02:13;;;;;;;8.73;4.43;;;11.60;45.10;;;;;;5071655;28;21030;-53
2021/04/18 02:04:40;;;;;;;6.80;4.57;;;11.50;45.00;;;;;;5073014;28;20690;-53
2021/04/18 02:07:07;;;;;;;6.17;4.73;;;11.60;45.00;;;;;;5071773;28;21035;-54
2021/04/18 02:09:34;;;;;;;6.97;5.00;;;11.50;44.60;;;;;;5071814;28;20686;-53
2021/04/18 02:12:01;;;;;;;6.33;5.57;;;11.50;44.40;;;;;;5074297;28;20718;-53
2021/04/18 02:14:29;;;;;;;7.23;4.77;;;11.40;44.00;;;;;;5091782;28;21227;-53
2021/04/18 02:16:55;;;;;;;6.63;5.40;;;11.40;44.00;;;;;;5071695;28;20625;-53
2021/04/18 02:19:22;;;;;;;5.90;4.40;;;11.40;43.90;;;;;;5071749;28;20633;-51
2021/04/18 02:21:49;;;;;;;6.27;4.63;;;11.30;43.70;;;;;;5087771;28;20702;-53
2021/04/18 02:24:15;;;;;;;6.57;4.60;;;11.30;43.80;;;;;;5071423;28;20628;-53
2021/04/18 02:26:42;;;;;;;7.53;5.23;;;11.30;43.90;;;;;;5071252;28;20626;-53
2021/04/18 02:29:09;;;;;;;6.63;5.90;;;11.30;43.90;;;;;;5071789;28;20629;-53
2021/04/18 02:31:37;;;;;;;7.07;4.63;;;11.30;43.90;;;;;;5070734;28;21233;-53
2021/04/18 02:34:03;;;;;;;5.73;4.60;;;11.30;43.90;;;;;;5071365;28;21016;-53
2021/04/18 02:36:30;;;;;;;6.33;4.80;;;11.40;43.90;;;;;;5070975;28;20629;-53
2021/04/18 02:38:57;;;;;;;7.00;5.20;;;11.40;43.90;;;;;;5070603;28;20637;-53
2021/04/18 02:41:24;;;;;;;6.07;4.63;;;11.40;43.90;;;;;;5071034;28;20657;-53
2021/04/18 02:43:50;;;;;;;8.00;4.93;;;11.50;43.90;;;;;;5071458;28;20625;-53
2021/04/18 02:46:17;;;;;;;7.73;6.27;;;11.50;43.90;;;;;;5061220;28;20625;-53
2021/04/18 02:48:45;;;;;;;5.90;4.70;;;11.50;43.80;;;;;;5070310;28;20693;-53
2021/04/18 02:51:11;;;;;;;6.40;5.03;;;11.50;43.70;;;;;;5070950;28;20732;-53
2021/04/18 02:53:38;;;;;;;7.83;5.67;;;11.50;43.60;;;;;;5070332;28;20629;-53
2021/04/18 02:56:05;;;;;;;9.90;5.27;;;11.40;43.70;;;;;;5070837;28;21278;-53
2021/04/18 02:58:32;;;;;;;6.30;5.03;;;11.40;43.70;;;;;;5070341;28;21185;-53
2021/04/18 03:00:59;;;;;;;8.90;5.53;;;11.40;43.90;;;;;;5072330;28;20710;-53
2021/04/18 03:03:25;;;;;;;7.10;5.00;;;11.40;44.00;;;;;;5070890;28;21247;-53
2021/04/18 03:05:53;;;;;;;9.43;5.70;;;11.40;43.90;;;;;;5070815;28;20671;-53
2021/04/18 03:08:20;;;;;;;5.17;4.67;;;11.40;44.00;;;;;;5070505;28;20919;-53
2021/04/18 03:10:46;;;;;;;6.83;4.87;;;11.40;43.90;;;;;;5070725;28;20652;-53
2021/04/18 03:13:13;;;;;;;12.27;6.17;;;11.40;44.10;;;;;;5055305;28;20687;-53
2021/04/18 03:15:40;;;;;;;8.63;5.77;;;11.40;44.10;;;;;;5070713;28;20653;-53
2021/04/18 03:18:07;;;;;;;10.97;5.93;;;11.40;44.40;;;;;;5075555;28;20690;-53
2021/04/18 03:20:33;;;;;;;8.17;4.60;;;11.40;44.00;;;;;;5074918;28;21176;-52
2021/04/18 03:23:01;;;;;;;6.83;5.47;;;11.40;44.00;;;;;;5074883;28;20667;-52
2021/04/18 03:25:28;;;;;;;9.60;7.40;;;11.40;44.00;;;;;;5075040;28;20624;-52
2021/04/18 03:27:54;;;;;;;8.43;5.33;;;11.40;44.00;;;;;;5078250;28;20616;-52
2021/04/18 03:30:21;;;;;;;5.80;5.23;;;11.30;43.90;;;;;;5092790;28;20620;-52
2021/04/18 03:32:48;;;;;;;7.67;6.53;;;11.30;44.00;;;;;;5084581;28;20628;-52
2021/04/18 03:35:15;;;;;;;7.07;4.93;;;11.30;44.20;;;;;;5077660;28;20671;-52
2021/04/18 03:37:42;;;;;;;5.50;5.00;;;11.30;44.40;;;;;;5074155;28;21282;-51
2021/04/18 03:40:11;;;;;;;10.33;6.13;;;11.30;44.40;;;;;;5074725;28;20674;-52
2021/04/18 03:42:37;;;;;;;8.23;6.20;;;11.30;44.30;;;;;;5074196;28;20629;-51
2021/04/18 03:45:04;;;;;;;13.20;5.77;;;11.30;44.30;;;;;;5074825;28;21189;-52
2021/04/18 03:47:31;;;;;;;7.27;6.40;;;11.40;44.30;;;;;;5073553;28;21174;-52
2021/04/18 03:49:58;;;;;;;6.37;5.77;;;11.40;44.20;;;;;;5075371;28;20625;-51
2021/04/18 03:52:25;;;;;;;9.27;6.23;;;11.40;44.00;;;;;;5056157;28;20661;-52
2021/04/18 03:54:51;;;;;;;7.07;6.10;;;11.40;44.10;;;;;;5074054;28;21213;-52
2021/04/18 03:57:19;;;;;;;8.70;6.30;;;11.40;44.20;;;;;;5073699;28;20662;-52
2021/04/18 03:59:46;;;;;;;10.37;6.47;;;11.40;44.30;;;;;;5074257;28;20633;-52
2021/04/18 04:02:12;;;;;;;10.87;6.27;;;11.50;44.90;;;;;;5073201;28;20653;-52
2021/04/18 04:04:39;;;;;;;13.50;6.70;;;11.50;45.30;;;;;;5073368;28;20687;-52
2021/04/18 04:07:06;;;;;;;7.80;6.47;;;11.50;45.30;;;;;;5075153;28;21162;-51
2021/04/18 04:09:32;;;;;;;6.50;5.90;;;11.50;45.70;;;;;;5073881;28;20628;-52
2021/04/18 04:11:59;;;;;;;6.43;5.83;;;11.50;46.10;;;;;;5073570;28;20703;-52
2021/04/18 04:14:27;;;;;;;8.33;6.47;;;11.40;46.30;;;;;;5073508;28;21205;-52
2021/04/18 04:16:53;;;;;;;9.57;5.50;;;11.50;46.50;;;;;;5073867;28;21420;-52
2021/04/18 04:19:20;;;;;;;8.90;6.10;;;11.50;46.60;;;;;;5072763;28;20629;-52
2021/04/18 04:21:47;;;;;;;5.60;4.93;;;11.50;46.60;;;;;;5072568;28;20710;-52
2021/04/18 04:24:14;;;;;;;6.07;5.50;;;11.40;46.70;;;;;;5072810;28;20629;-51
2021/04/18 04:26:40;;;;;;;7.83;6.07;;;11.40;46.90;;;;;;5073419;28;20667;-52
2021/04/18 04:29:07;;;;;;;9.97;7.00;;;11.40;47.00;;;;;;5073237;28;20636;-52
2021/04/18 04:31:35;;;;;;;10.57;6.50;;;11.30;46.90;;;;;;5073246;28;20660;-52
2021/04/18 04:34:02;;;;;;;9.63;7.70;;;11.30;46.80;;;;;;5073513;28;21169;-52
2021/04/18 04:36:29;;;;;;;6.37;5.33;;;11.30;46.80;;;;;;5073070;28;20715;-52
2021/04/18 04:38:56;;;;;;;7.87;5.83;;;11.30;46.80;;;;;;5072848;28;20682;-51
2021/04/18 04:41:22;;;;;;;10.43;6.37;;;11.30;46.80;;;;;;5073360;28;20656;-52
2021/04/18 04:43:49;;;;;;;9.90;7.20;;;11.30;46.60;;;;;;5071979;28;20743;-51
2021/04/18 04:46:16;;;;;;;11.40;6.73;;;11.20;46.60;;;;;;5072688;28;20629;-52
2021/04/18 04:48:43;;;;;;;8.07;6.23;;;11.20;46.70;;;;;;5072960;28;20706;-52
2021/04/18 04:51:10;;;;;;;7.57;6.63;;;11.20;46.70;;;;;;5076188;28;21240;-52
2021/04/18 04:53:37;;;;;;;11.57;7.37;;;11.20;46.80;;;;;;5072831;28;20625;-52
2021/04/18 04:56:04;;;;;;;7.47;6.77;;;11.20;47.00;;;;;;5073286;28;20718;-52
2021/04/18 04:58:31;;;;;;;7.70;6.70;;;11.20;47.00;;;;;;5072486;28;20702;-52
2021/04/18 05:00:58;;;;;;;8.50;6.07;;;11.20;46.90;;;;;;5073107;28;20648;-51
2021/04/18 05:03:26;;;;;;;12.27;6.90;;;11.20;46.90;;;;;;5078365;28;21018;-52
2021/04/18 05:05:54;;;;;;;7.40;6.20;;;11.20;46.90;;;;;;5077985;28;20650;-51
2021/04/18 05:08:21;;;;;;;8.80;6.53;;;11.30;47.00;;;;;;5078819;28;20621;-52
2021/04/18 05:10:48;;;;;;;11.40;6.90;;;11.30;46.90;;;;;;5072905;28;21044;-51
2021/04/18 05:13:14;;;;;;;7.27;6.57;;;11.30;47.10;;;;;;5072155;28;20690;-50
2021/04/18 05:15:41;;;;;;;6.63;5.93;;;11.30;47.10;;;;;;5072578;28;20653;-51
2021/04/18 05:18:08;;;;;;;8.63;6.00;;;11.30;47.20;;;;;;5071888;28;20621;-51
2021/04/18 05:20:35;;;;;;;8.50;6.30;;;11.30;47.50;;;;;;5072462;28;20660;-51
2021/04/18 05:23:02;;;;;;;13.10;7.00;;;11.30;47.50;;;;;;5072628;28;20647;-51
2021/04/18 05:25:29;;;;;;;8.37;7.50;;;11.30;47.40;;;;;;5071866;28;20625;-50
2021/04/18 05:27:56;;;;;;;9.10;6.30;;;11.40;47.80;;;;;;5072564;28;21181;-51
2021/04/18 05:30:24;;;;;;;10.33;7.00;;;11.40;47.80;;;;;;5072229;28;20700;-51
2021/04/18 05:32:50;;;;;;;13.50;7.03;;;11.40;47.80;;;;;;5072730;28;21242;-51
2021/04/18 05:35:17;;;;;;;9.50;6.07;;;11.40;48.00;;;;;;5076445;28;20656;-51
2021/04/18 05:37:44;;;;;;;7.27;6.43;;;11.40;48.10;;;;;;5080399;28;21068;-51
2021/04/18 05:40:12;;;;;;;8.40;6.57;;;11.40;48.50;;;;;;5072268;28;20625;-51
2021/04/18 05:42:39;;;;;;;6.83;6.00;;;11.40;48.30;;;;;;5072171;28;20687;-51
2021/04/18 05:45:07;;;;;;;6.83;6.20;;;11.40;48.50;;;;;;5075834;28;21003;-50
2021/04/18 05:47:33;;;;;;;7.50;6.70;;;11.50;49.50;;;;;;5071622;28;20621;-50
2021/04/18 05:50:00;;;;;;;8.83;6.60;;;11.50;49.60;;;;;;5085110;28;20781;-51
2021/04/18 05:52:27;;;;;;;8.50;6.83;;;11.50;50.00;;;;;;5082814;28;20657;-50
2021/04/18 05:54:54;;;;;;;7.90;6.27;;;11.50;50.20;;;;;;5071364;28;20629;-50
2021/04/18 05:57:21;;;;;;;10.17;7.70;;;11.50;51.00;;;;;;5073661;28;20629;-50
2021/04/18 05:59:48;;;;;;;7.30;6.13;;;11.40;51.50;;;;;;5072038;28;20657;-51
2021/04/18 06:02:15;;;;;;;6.80;6.20;;;11.40;51.60;;;;;;5071787;28;20685;-51
2021/04/18 06:04:41;;;;;;;8.20;7.40;;;11.40;51.60;;;;;;5074748;28;20703;-50
2021/04/18 06:07:08;;;;;;;7.73;6.40;;;11.50;51.70;;;;;;5076993;28;21074;-50
2021/04/18 06:09:35;;;;;;;6.67;6.00;;;11.50;52.10;;;;;;5071511;28;20663;-51
2021/04/18 06:12:02;;;;;;;9.77;7.63;;;11.50;52.70;;;;;;5071135;28;20653;-50
2021/04/18 06:14:29;;;;;;;11.30;7.87;;;11.50;53.20;;;;;;5071369;28;20663;-50
2021/04/18 06:16:56;;;;;;;7.50;6.70;;;11.50;53.60;;;;;;5070937;28;20759;-50
2021/04/18 06:19:23;;;;;;;7.83;7.03;;;11.50;53.10;;;;;;5071359;28;20625;-50
2021/04/18 06:21:49;;;;;;;10.30;7.80;;;11.50;52.80;;;;;;5070713;28;20711;-51
2021/04/18 06:24:16;;;;;;;11.17;7.37;;;11.50;52.80;;;;;;5071386;28;20684;-50
2021/04/18 06:26:43;;;;;;;8.73;7.17;;;11.50;53.20;;;;;;5071213;28;20625;-51
2021/04/18 06:29:09;;;;;;;9.37;8.20;;;11.50;53.40;;;;;;5071251;28;21186;-50
2021/04/18 06:31:37;;;;;;;12.50;8.33;;;11.60;53.60;;;;;;5071028;28;20704;-51
2021/04/18 06:34:04;;;;;;;8.90;7.97;;;11.60;53.90;;;;;;5072402;28;20637;-50
2021/04/18 06:36:31;;;;;;;10.77;8.87;;;11.70;54.10;;;;;;5070762;28;20696;-50
2021/04/18 06:38:58;;;;;;;9.23;7.90;;;11.80;54.10;;;;;;5071322;28;20679;-51
2021/04/18 06:41:25;;;;;;;10.00;7.97;;;11.80;53.90;;;;;;5071036;28;20708;-51
2021/04/18 06:43:52;;;;;;;14.70;8.73;;;11.80;53.40;;;;;;5070779;28;20678;-50
2021/04/18 06:46:19;;;;;;;12.70;9.27;;;11.90;52.80;;;;;;5070472;28;20617;-51
2021/04/18 06:48:47;;;;;;;11.00;8.83;;;11.90;53.00;;;;;;5070371;28;21032;-50
2021/04/18 06:51:15;;;;;;;9.23;8.30;;;11.90;53.20;;;;;;5070841;28;20653;-51
2021/04/18 06:53:42;;;;;;;10.90;7.50;;;11.90;53.10;;;;;;5059750;28;20990;-50
2021/04/18 06:56:09;;;;;;;8.47;7.17;;;11.90;53.20;;;;;;5051101;28;20653;-51
2021/04/18 06:58:35;;;;;;;8.73;7.93;;;11.80;53.30;;;;;;5062021;28;20683;-51
2021/04/18 07:01:04;;;;;;;10.57;9.37;;;11.80;53.40;;;;;;5070685;28;20652;-51
2021/04/18 07:03:31;;;;;;;11.60;8.73;;;11.90;54.10;;;;;;5071147;28;20618;-50
2021/04/18 07:05:59;;;;;;;9.60;8.70;;;11.90;53.80;;;;;;5071144;28;21358;-52
2021/04/18 07:08:28;;;;;;;11.67;8.80;;;11.90;53.90;;;;;;5070353;28;20656;-51
2021/04/18 07:11:10;;;;;;;10.13;8.60;;;11.90;54.30;;;;;;5071251;28;20707;-51
2021/04/18 07:13:37;;;;;;;9.00;8.10;;;12.00;54.80;;;;;;5070653;28;20671;-50
2021/04/18 07:16:06;;;;;;;9.73;8.70;;;12.00;54.10;;;;;;5070825;28;20665;-51
2021/04/18 07:18:37;;;;;;;10.10;8.93;;;12.00;54.50;;;;;;5070123;28;20667;-51
2021/04/18 07:21:05;;;;;;;9.97;8.97;;;12.00;54.80;;;;;;5070352;28;20726;-51
2021/04/18 07:23:34;;;;;;;10.90;9.80;;;12.00;54.70;;;;;;5070802;28;20683;-50
2021/04/18 07:26:16;;;;;;;11.63;8.73;;;12.00;55.10;;;;;;5070613;28;20622;-51
2021/04/18 07:28:43;;;;;;;10.17;9.13;;;12.00;55.60;;;;;;5070128;28;20628;-51
2021/04/18 07:31:10;;;;;;;12.93;11.53;;;12.10;55.80;;;;;;5070195;28;20693;-51
2021/04/18 07:34:04;;;;;;;11.40;10.00;;;12.10;56.30;;;;;;5070327;28;21173;-51
2021/04/18 07:36:31;;;;;;;11.33;10.13;;;12.10;57.10;;;;;;5050359;28;20658;-51
2021/04/18 07:38:58;;;;;;;10.77;9.67;;;12.20;57.50;;;;;;5055155;28;20679;-51
2021/04/18 07:41:25;;;;;;;10.00;9.03;;;12.20;57.80;;;;;;5070839;28;20658;-50
2021/04/18 07:43:52;;;;;;;12.40;10.67;;;12.30;58.10;;;;;;5070011;28;20649;-50
2021/04/18 07:46:19;;;;;;;11.50;9.43;;;12.40;58.00;;;;;;5055849;28;20622;-51
2021/04/18 07:48:46;;;;;;;11.63;10.60;;;12.50;58.40;;;;;;5068903;28;21161;-51
2021/04/18 07:51:14;;;;;;;11.53;10.03;;;12.60;58.40;;;;;;5070152;28;20657;-51
2021/04/18 07:53:42;;;;;;;12.80;11.33;;;12.70;58.90;;;;;;5070426;28;20638;-51
2021/04/18 07:56:09;;;;;;;13.30;11.27;;;12.90;58.30;;;;;;5070402;28;21307;-51
2021/04/18 07:58:39;;;;;;;16.47;11.30;;;13.10;57.60;;;;;;5053328;28;20989;-51
2021/04/18 08:01:06;;;;;;;11.90;10.60;;;13.20;57.50;;;;;;5068192;28;20706;-51
2021/04/18 08:03:33;;;;;;;12.40;11.10;;;13.30;57.00;;;;;;5074079;28;20691;-51
2021/04/18 08:06:00;;;;;;;11.03;10.07;;;13.40;56.40;;;;;;5073884;28;20621;-51
2021/04/18 08:08:46;;;;;;;12.33;11.10;;;13.50;56.50;;;;;;5073900;28;20637;-50
2021/04/18 08:11:13;;;;;;;13.37;11.97;;;13.60;56.10;;;;;;5073803;28;20682;-50
2021/04/18 08:13:41;;;;;;;13.53;11.33;;;13.70;55.50;;;;;;5073221;28;20629;-51
2021/04/18 08:16:08;;;;;;;12.03;10.80;;;13.70;55.40;;;;;;5074056;28;20653;-51
2021/04/18 08:18:36;;;;;;;13.77;12.33;;;13.80;55.40;;;;;;5073596;28;20624;-51
2021/04/18 08:21:04;;;;;;;15.40;13.80;;;13.80;55.60;;;;;;5074806;28;20706;-51
2021/04/18 08:23:36;;;;;;;12.63;11.33;;;13.90;56.00;;;;;;5076314;28;20629;-51
2021/04/18 08:26:08;;;;;;;11.80;10.63;;;14.10;56.00;;;;;;5070194;28;20679;-51
2021/04/18 08:29:09;;;;;;;12.97;11.70;;;14.20;55.80;;;;;;5072790;28;20625;-50
2021/04/18 08:31:58;;;;;;;12.37;11.30;;;14.30;56.10;;;;;;5073397;28;20657;-51
2021/04/18 08:34:27;;;;;;;13.50;12.20;;;14.30;55.80;;;;;;5073339;28;20716;-50
2021/04/18 08:36:54;;;;;;;12.67;11.43;;;14.40;56.10;;;;;;5073294;28;20694;-51
2021/04/18 08:39:23;;;;;;;12.27;11.17;;;14.40;56.00;;;;;;5072965;28;20624;-50
2021/04/18 08:41:51;;;;;;;13.33;11.90;;;14.40;56.10;;;;;;5073250;28;20657;-50
2021/04/18 08:44:19;;;;;;;14.00;12.60;;;14.40;56.00;;;;;;5073981;28;20686;-51
2021/04/18 08:46:46;;;;;;;13.97;12.27;;;14.40;56.00;;;;;;5073234;28;20620;-51
2021/04/18 08:49:14;;;;;;;14.07;12.23;;;14.50;55.90;;;;;;5073047;28;20655;-51
2021/04/18 08:51:41;;;;;;;13.93;12.50;;;14.50;55.70;;;;;;5073898;28;21282;-51
2021/04/18 08:54:09;;;;;;;13.13;11.93;;;14.50;55.20;;;;;;5072953;28;20621;-51
2021/04/18 08:56:46;;;;;;;13.43;11.93;;;14.40;55.10;;;;;;5072767;28;21039;-51
2021/04/18 08:59:14;;;;;;;13.03;11.77;;;14.40;55.00;;;;;;5072913;28;20632;-51
2021/04/18 09:01:57;;;;;;;14.47;13.00;;;14.30;55.10;;;;;;5073461;28;20656;-51
2021/04/18 09:04:24;;;;;;;14.10;12.40;;;14.30;55.30;;;;;;5072843;28;20698;-50
2021/04/18 09:06:51;;;;;;;15.10;13.67;;;14.40;55.40;;;;;;5071276;28;21178;-51
2021/04/18 09:09:18;;;;;;;14.50;12.10;;;14.40;55.00;;;;;;5061557;28;20653;-52
2021/04/18 09:11:47;;;;;;;12.87;11.57;;;14.50;55.30;;;;;;5072552;28;20711;-51
2021/04/18 09:14:23;;;;;;;14.13;12.07;;;14.60;55.00;;;;;;5072664;28;20679;-51
2021/04/18 09:16:50;;;;;;;13.23;11.83;;;14.70;54.60;;;;;;5072838;28;20665;-50
2021/04/18 09:19:25;;;;;;;13.17;11.53;;;14.70;54.70;;;;;;5072523;28;21025;-51
2021/04/18 09:21:56;;;;;;;14.93;13.53;;;14.80;54.70;;;;;;5072301;28;20648;-51
2021/04/18 09:24:23;;;;;;;17.57;13.40;;;14.80;54.40;;;;;;5072412;28;20671;-52
2021/04/18 09:27:00;;;;;;;15.63;13.70;;;14.80;54.40;;;;;;5072374;28;20675;-51
2021/04/18 09:29:28;;;;;;;12.30;10.50;;;14.80;54.50;;;;;;5072138;28;21224;-51
2021/04/18 09:31:59;;;;;;;15.23;12.63;;;14.80;54.20;;;;;;5071478;28;20665;-51
2021/04/18 09:34:26;;;;;;;12.70;11.50;;;14.80;54.10;;;;;;5072123;28;20698;-51
2021/04/18 09:36:53;;;;;;;11.30;10.10;;;14.70;54.20;;;;;;5072295;28;20657;-51
2021/04/18 09:39:20;;;;;;;14.30;12.90;;;14.70;54.40;;;;;;5072030;28;21254;-50
2021/04/18 09:41:47;;;;;;;12.63;11.33;;;14.70;54.30;;;;;;5071770;28;21064;-51
2021/04/18 09:44:27;;;;;;;12.77;11.47;;;14.70;54.10;;;;;;5071351;28;20962;-50
2021/04/18 09:46:57;;;;;;;12.00;10.80;;;14.60;54.20;;;;;;5072602;28;21189;-51
2021/04/18 09:49:24;;;;;;;12.23;10.87;;;14.60;54.60;;;;;;5071652;28;21251;-50
2021/04/18 09:51:54;;;;;;;11.57;10.40;;;14.50;54.70;;;;;;5072589;28;20661;-51
2021/04/18 09:54:29;;;;;;;13.47;12.07;;;14.60;54.90;;;;;;5053897;28;20657;-51
2021/04/18 09:57:29;;;;;;;13.13;11.73;;;14.50;55.50;;;;;;5072031;28;20734;-51
2021/04/18 10:00:07;;;;;;;15.13;12.93;;;14.50;55.30;;;;;;5009647;28;20710;-50
2021/04/18 10:02:36;;;;;;;13.80;12.47;;;14.60;55.60;;;;;;5009621;28;20689;-51
2021/04/18 10:05:11;;;;;;;15.67;12.63;;;14.60;55.70;;;;;;5042018;28;20667;-51
2021/04/18 10:08:13;;;;;;;12.77;11.57;;;14.60;55.70;;;;;;5070742;28;20623;-51
2021/04/18 10:10:40;;;;;;;12.03;10.80;;;14.60;55.70;;;;;;5071264;28;20668;-51
2021/04/18 10:13:08;;;;;;;17.00;11.80;;;14.60;55.80;;;;;;5066163;28;21167;-51
2021/04/18 10:15:44;;;;;;;11.87;10.77;;;14.70;56.10;;;;;;5068013;28;20630;-51
2021/04/18 10:18:17;;;;;;;12.67;11.47;;;14.70;56.10;;;;;;5068565;28;20706;-51
2021/04/18 10:20:44;;;;;;;14.40;13.03;;;14.70;56.10;;;;;;5066015;28;20734;-51
2021/04/18 10:23:12;;;;;;;13.43;12.10;;;14.80;55.90;;;;;;5071383;28;21185;-52
2021/04/18 10:25:39;;;;;;;12.77;11.17;;;14.80;55.40;;;;;;5071454;28;20625;-51
2021/04/18 10:28:06;;;;;;;12.27;11.00;;;14.80;55.10;;;;;;5071141;28;20656;-51
2021/04/18 10:30:33;;;;;;;12.83;11.53;;;14.80;55.00;;;;;;5086590;28;21232;-51
2021/04/18 10:33:00;;;;;;;12.67;11.47;;;14.90;54.90;;;;;;5070912;28;20659;-50
2021/04/18 10:35:28;;;;;;;12.70;11.60;;;14.80;55.40;;;;;;5053405;28;21263;-51
2021/04/18 10:37:54;;;;;;;12.53;11.27;;;14.90;55.00;;;;;;5050861;28;20687;-52
2021/04/18 10:40:22;;;;;;;14.40;12.87;;;14.90;54.90;;;;;;5071242;28;20671;-51
2021/04/18 10:42:49;;;;;;;13.53;12.17;;;15.00;54.60;;;;;;5070884;28;20765;-51
2021/04/18 10:45:17;;;;;;;12.17;10.93;;;15.00;54.60;;;;;;5069242;28;20677;-51
2021/04/18 10:47:43;;;;;;;12.10;10.90;;;15.00;54.80;;;;;;5070501;28;20628;-51
2021/04/18 10:50:14;;;;;;;13.80;12.40;;;15.10;54.80;;;;;;5090948;28;20632;-52
2021/04/18 10:52:42;;;;;;;11.60;10.50;;;15.10;54.60;;;;;;5091251;28;21232;-51
2021/04/18 10:55:10;;;;;;;12.20;11.00;;;15.10;54.40;;;;;;5091248;28;20689;-52
2021/04/18 10:57:37;;;;;;;16.57;11.70;;;15.00;54.40;;;;;;5073985;28;20661;-51
2021/04/18 11:00:06;;;;;;;11.77;10.67;;;15.00;54.50;;;;;;5089716;28;20717;-51
2021/04/18 11:02:33;;;;;;;13.50;11.90;;;15.00;54.80;;;;;;5072924;28;20632;-51
2021/04/18 11:04:59;;;;;;;12.00;10.90;;;15.00;54.90;;;;;;5076165;28;20656;-51
2021/04/18 11:07:26;;;;;;;13.83;11.90;;;15.00;54.80;;;;;;5053047;28;20725;-51
2021/04/18 11:09:54;;;;;;;14.10;12.57;;;14.90;54.70;;;;;;5070372;28;21148;-52
2021/04/18 11:12:21;;;;;;;13.70;12.27;;;14.90;54.90;;;;;;5053136;28;20649;-52
2021/04/18 11:14:49;;;;;;;12.63;11.43;;;14.80;55.00;;;;;;5052814;28;20621;-51
2021/04/18 11:17:16;;;;;;;13.40;12.10;;;14.80;55.20;;;;;;5070257;28;20654;-51
2021/04/18 11:19:43;;;;;;;12.80;11.57;;;14.90;55.60;;;;;;5070297;28;20625;-53
2021/04/18 11:22:11;;;;;;;11.73;9.70;;;14.90;55.50;;;;;;5082050;28;20767;-51
2021/04/18 11:24:38;;;;;;;12.47;11.20;;;14.90;55.00;;;;;;5073496;28;20629;-52
2021/04/18 11:27:06;;;;;;;11.10;9.70;;;14.90;55.10;;;;;;5070769;28;20687;-52
2021/04/18 11:29:35;;;;;;;9.47;8.67;;;14.90;54.50;;;;;;5081119;28;20880;-52
2021/04/18 11:32:02;;;;;;;11.23;9.57;;;14.90;54.40;;;;;;5075918;28;20726;-52
2021/04/18 11:34:29;;;;;;;10.93;9.37;;;15.00;54.40;;;;;;5065485;28;20687;-52
2021/04/18 11:36:56;;;;;;;8.93;8.13;;;15.10;54.50;;;;;;5074325;28;20653;-52
2021/04/18 11:39:22;;;;;;;8.87;8.00;;;15.20;54.10;;;;;;5074612;28;20621;-51
2021/04/18 11:41:50;;;;;;;14.00;9.47;;;15.40;53.70;;;;;;5086269;28;20644;-51
2021/04/18 11:44:17;;;;;;;9.53;8.53;;;15.50;53.50;;;;;;5093191;28;20747;-52
2021/04/18 11:46:44;;;;;;;10.57;8.47;;;15.60;53.40;;;;;;5073089;28;20638;-52
2021/04/18 11:49:11;;;;;;;12.73;9.00;;;15.70;53.10;;;;;;5059427;28;20640;-51
2021/04/18 11:51:38;;;;;;;10.60;9.57;;;15.70;53.00;;;;;;5074301;28;20727;-52
2021/04/18 11:54:05;;;;;;;9.77;8.97;;;15.70;53.00;;;;;;5073920;28;20613;-51
2021/04/18 11:56:32;;;;;;;11.87;9.67;;;15.70;52.90;;;;;;5073840;28;20685;-52
2021/04/18 11:58:59;;;;;;;9.97;9.07;;;15.70;52.60;;;;;;5073749;28;20679;-52
2021/04/18 12:01:26;;;;;;;10.43;8.57;;;15.70;52.80;;;;;;5074595;28;21077;-52
2021/04/18 12:03:53;;;;;;;10.37;9.33;;;15.70;52.70;;;;;;5074241;28;20664;-52
2021/04/18 12:06:20;;;;;;;8.77;7.97;;;15.70;52.80;;;;;;5073738;28;20633;-52
2021/04/18 12:08:50;;;;;;;7.50;6.80;;;15.70;52.80;;;;;;5073393;28;20694;-52
2021/04/18 12:11:17;;;;;;;8.23;7.43;;;15.70;52.60;;;;;;5072897;28;20644;-52
2021/04/18 12:13:46;;;;;;;9.80;8.80;;;15.80;52.60;;;;;;5073767;28;20640;-52
2021/04/18 12:16:14;;;;;;;8.50;7.80;;;15.80;52.70;;;;;;5059145;28;20621;-52
2021/04/18 12:18:42;;;;;;;7.47;6.77;;;15.90;52.60;;;;;;5055368;28;21037;-52
2021/04/18 12:21:09;;;;;;;8.40;7.50;;;16.00;52.20;;;;;;5073474;28;20683;-52
2021/04/18 12:23:36;;;;;;;7.90;7.20;;;16.00;52.00;;;;;;5073099;28;20706;-52
2021/04/18 12:26:03;;;;;;;8.87;8.07;;;16.00;51.80;;;;;;5073443;28;21105;-52
2021/04/18 12:28:30;;;;;;;9.20;8.40;;;16.00;52.00;;;;;;5073006;28;20682;-52
2021/04/18 12:30:56;;;;;;;9.30;8.50;;;15.90;52.20;;;;;;5072927;28;20664;-52
2021/04/18 12:33:27;;;;;;;8.87;8.07;;;15.90;52.30;;;;;;5073553;28;20628;-52
2021/04/18 12:35:55;;;;;;;9.97;8.03;;;16.00;52.10;;;;;;5073164;28;21189;-52
2021/04/18 12:38:22;;;;;;;10.60;9.63;;;16.00;52.00;;;;;;5072288;28;20648;-52
2021/04/18 12:40:49;;;;;;;9.30;8.47;;;16.10;51.80;;;;;;5072652;28;21050;-53
2021/04/18 12:43:15;;;;;;;9.23;8.23;;;16.10;51.70;;;;;;5090727;28;20685;-54